^^
Grace C. Lehan Memorial Weather Station Historical Data
Daily Summary for January 4, 2021 Units:  Both    English   Metric
Daily Weekly Monthly Yearly
  High: Low: Average:
Temperature: 79.9 °F /  26.6 °C 55.7 °F /  13.2 °C 66.7 °F /  19.3 °C
Dew Point: 63 °F /  17.2 °C 53.4 °F /  11.9 °C 58.3 °F /  14.6 °C
Humidity: 93% 50% 76%
Wind Speed: 5mph /  8km/h - 0.7mph /  1.1km/h
Wind Gust: 12mph /  19.3km/h - -
Wind- - WNW
Pressure: 30.00 in /  1015.8 hPa 29.87 in /  1011.4 hPa -
Precipitation: 0.00 in /  0 mm    
 
 
Tabular Data for January 4, 2021
Time Temperature Dew Point Pressure Wind Wind Speed Wind Gust Humidity Rainfall Rate (Hourly) solar
00:09 62.4 °F /  16.9 °C 56.5 °F /  13.6 °C 29.99in /  1015.5hPa WNW 2.7mph /  4.3km/h 9mph /  14.5km/h 81% 0.00in /  0mm 0 W/m2
00:14 62.3 °F /  16.8 °C 56.4 °F /  13.6 °C 29.99in /  1015.5hPa WNW 0.9mph /  1.4km/h 9mph /  14.5km/h 81% 0.00in /  0mm 0 W/m2
00:19 62.3 °F /  16.8 °C 56.4 °F /  13.6 °C 29.99in /  1015.5hPa WNW 1.5mph /  2.4km/h 9mph /  14.5km/h 81% 0.00in /  0mm 0 W/m2
00:24 62.2 °F /  16.8 °C 56.3 °F /  13.5 °C 29.99in /  1015.5hPa WNW 0.5mph /  0.8km/h 9mph /  14.5km/h 81% 0.00in /  0mm 0 W/m2
00:29 62.1 °F /  16.7 °C 56.2 °F /  13.4 °C 29.99in /  1015.5hPa WNW 0.6mph /  1km/h 9mph /  14.5km/h 80.9% 0.00in /  0mm 0 W/m2
00:34 62.1 °F /  16.7 °C 55.8 °F /  13.2 °C 29.99in /  1015.5hPa WNW 0.7mph /  1.1km/h 9mph /  14.5km/h 80% 0.00in /  0mm 0 W/m2
00:39 62 °F /  16.7 °C 55.7 °F /  13.2 °C 29.99in /  1015.5hPa WNW 0.6mph /  1km/h 4mph /  6.4km/h 80% 0.00in /  0mm 0 W/m2
00:44 61.9 °F /  16.6 °C 55.9 °F /  13.3 °C 29.99in /  1015.5hPa WNW 0.7mph /  1.1km/h 5mph /  8km/h 80.7% 0.00in /  0mm 0 W/m2
00:49 61.7 °F /  16.5 °C 55.9 °F /  13.3 °C 29.99in /  1015.5hPa WNW 0.2mph /  0.3km/h 5mph /  8km/h 81% 0.00in /  0mm 0 W/m2
00:54 61.6 °F /  16.4 °C 55.7 °F /  13.2 °C 29.99in /  1015.5hPa WNW 0.2mph /  0.3km/h 5mph /  8km/h 81% 0.00in /  0mm 0 W/m2
00:59 61.5 °F /  16.4 °C 55.6 °F /  13.1 °C 29.99in /  1015.5hPa WNW 0.2mph /  0.3km/h 5mph /  8km/h 81% 0.00in /  0mm 0 W/m2
01:04 61.4 °F /  16.3 °C 55.5 °F /  13.1 °C 29.99in /  1015.5hPa Calm   5mph /  8km/h 81% 0.00in /  0mm 0 W/m2
01:09 61.3 °F /  16.3 °C 55.4 °F /  13 °C 29.99in /  1015.5hPa Calm     80.9% 0.00in /  0mm 0 W/m2
01:14 61.2 °F /  16.2 °C 55 °F /  12.8 °C 29.99in /  1015.5hPa Calm     80% 0.00in /  0mm 0 W/m2
01:19 61.1 °F /  16.2 °C 54.9 °F /  12.7 °C 29.99in /  1015.5hPa Calm     80% 0.00in /  0mm 0 W/m2
01:24 61.1 °F /  16.2 °C 54.9 °F /  12.7 °C 29.99in /  1015.5hPa Calm     80% 0.00in /  0mm 0 W/m2
01:29 61.1 °F /  16.2 °C 54.9 °F /  12.7 °C 29.99in /  1015.5hPa Calm   1mph /  1.6km/h 80% 0.00in /  0mm 0 W/m2
01:34 61 °F /  16.1 °C 54.8 °F /  12.7 °C 29.99in /  1015.5hPa Calm   1mph /  1.6km/h 80% 0.00in /  0mm 0 W/m2
01:39 61 °F /  16.1 °C 54.8 °F /  12.7 °C 29.98in /  1015.1hPa Calm   1mph /  1.6km/h 80.1% 0.00in /  0mm 0 W/m2
01:44 61 °F /  16.1 °C 55.1 °F /  12.8 °C 29.98in /  1015.1hPa Calm   1mph /  1.6km/h 81% 0.00in /  0mm 0 W/m2
01:49 60.9 °F /  16.1 °C 55.2 °F /  12.9 °C 29.98in /  1015.1hPa Calm   1mph /  1.6km/h 81.7% 0.00in /  0mm 0 W/m2
01:54 60.7 °F /  15.9 °C 54.9 °F /  12.7 °C 29.98in /  1015.1hPa Calm   1mph /  1.6km/h 81% 0.00in /  0mm 0 W/m2
01:59 60.5 °F /  15.8 °C 54.9 °F /  12.7 °C 29.98in /  1015.1hPa Calm   1mph /  1.6km/h 81.5% 0.00in /  0mm 0 W/m2
02:04 60.3 °F /  15.7 °C 54.8 °F /  12.7 °C 29.98in /  1015.1hPa Calm   1mph /  1.6km/h 82% 0.00in /  0mm 0 W/m2
02:09 60.1 °F /  15.6 °C 54.8 °F /  12.7 °C 29.98in /  1015.1hPa Calm     82.7% 0.00in /  0mm 0 W/m2
02:14 59.9 °F /  15.5 °C 54.8 °F /  12.7 °C 29.98in /  1015.1hPa Calm     83.3% 0.00in /  0mm 0 W/m2
02:19 59.7 °F /  15.4 °C 54.9 °F /  12.7 °C 29.98in /  1015.1hPa Calm     84% 0.00in /  0mm 0 W/m2
02:24 59.5 °F /  15.3 °C 54.8 °F /  12.7 °C 29.98in /  1015.1hPa Calm     84.4% 0.00in /  0mm 0 W/m2
02:29 59.4 °F /  15.2 °C 54.9 °F /  12.7 °C 29.98in /  1015.1hPa Calm     85% 0.00in /  0mm 0 W/m2
02:34 59.2 °F /  15.1 °C 54.7 °F /  12.6 °C 29.98in /  1015.1hPa Calm     85.2% 0.00in /  0mm 0 W/m2
02:39 59.1 °F /  15.1 °C 54.9 °F /  12.7 °C 29.97in /  1014.8hPa Calm     86% 0.00in /  0mm 0 W/m2
02:44 58.9 °F /  14.9 °C 54.8 °F /  12.7 °C 29.97in /  1014.8hPa Calm     86% 0.00in /  0mm 0 W/m2
02:49 58.8 °F /  14.9 °C 54.6 °F /  12.6 °C 29.97in /  1014.8hPa Calm     86% 0.00in /  0mm 0 W/m2
02:54 58.7 °F /  14.8 °C 54.8 °F /  12.7 °C 29.97in /  1014.8hPa Calm     87% 0.00in /  0mm 0 W/m2
02:59 58.6 °F /  14.8 °C 54.8 °F /  12.7 °C 29.97in /  1014.8hPa Calm     87% 0.00in /  0mm 0 W/m2
03:04 58.5 °F /  14.7 °C 54.6 °F /  12.6 °C 29.97in /  1014.8hPa Calm     87% 0.00in /  0mm 0 W/m2
03:09 58.4 °F /  14.7 °C 54.5 °F /  12.5 °C 29.97in /  1014.8hPa Calm     87% 0.00in /  0mm 0 W/m2
03:14 58.3 °F /  14.6 °C 54.6 °F /  12.6 °C 29.97in /  1014.8hPa Calm     87.5% 0.00in /  0mm 0 W/m2
03:19 58.2 °F /  14.6 °C 54.7 °F /  12.6 °C 29.97in /  1014.8hPa Calm     88% 0.00in /  0mm 0 W/m2
03:24 58.2 °F /  14.6 °C 54.6 °F /  12.6 °C 29.96in /  1014.4hPa Calm     88% 0.00in /  0mm 0 W/m2
03:29 58.1 °F /  14.5 °C 54.6 °F /  12.6 °C 29.96in /  1014.4hPa Calm     88% 0.00in /  0mm 0 W/m2
03:34 58 °F /  14.4 °C 54.5 °F /  12.5 °C 29.96in /  1014.4hPa Calm     88.2% 0.00in /  0mm 0 W/m2
03:39 57.9 °F /  14.4 °C 54.6 °F /  12.6 °C 29.96in /  1014.4hPa Calm     88.7% 0.00in /  0mm 0 W/m2
03:44 57.8 °F /  14.3 °C 54.6 °F /  12.6 °C 29.96in /  1014.4hPa Calm     89% 0.00in /  0mm 0 W/m2
03:49 57.7 °F /  14.3 °C 54.5 °F /  12.5 °C 29.96in /  1014.4hPa Calm     89% 0.00in /  0mm 0 W/m2
03:54 57.5 °F /  14.2 °C 54.3 °F /  12.4 °C 29.97in /  1014.8hPa Calm     89% 0.00in /  0mm 0 W/m2
03:59 57.4 °F /  14.1 °C 54.2 °F /  12.3 °C 29.97in /  1014.8hPa Calm     89% 0.00in /  0mm 0 W/m2
04:00 57.3 °F /  14.1 °C 54.1 °F /  12.3 °C 29.97in /  1014.8hPa Calm     89% 0.00in /  0mm 0 W/m2
04:09 57.2 °F /  14 °C 54.2 °F /  12.3 °C 29.97in /  1014.8hPa Calm     89.8% 0.00in /  0mm 0 W/m2
04:14 57.1 °F /  13.9 °C 54.2 °F /  12.3 °C 29.97in /  1014.8hPa Calm     90% 0.00in /  0mm 0 W/m2
04:19 57 °F /  13.9 °C 54.1 °F /  12.3 °C 29.96in /  1014.4hPa Calm     90% 0.00in /  0mm 0 W/m2
04:24 56.9 °F /  13.8 °C 54 °F /  12.2 °C 29.96in /  1014.4hPa Calm     90% 0.00in /  0mm 0 W/m2
04:29 56.8 °F /  13.8 °C 53.9 °F /  12.2 °C 29.96in /  1014.4hPa Calm     90% 0.00in /  0mm 0 W/m2
04:34 56.7 °F /  13.7 °C 53.8 °F /  12.1 °C 29.96in /  1014.4hPa Calm     90% 0.00in /  0mm 0 W/m2
04:39 56.6 °F /  13.7 °C 53.7 °F /  12.1 °C 29.97in /  1014.8hPa Calm     90% 0.00in /  0mm 0 W/m2
04:44 56.5 °F /  13.6 °C 53.9 °F /  12.2 °C 29.96in /  1014.4hPa Calm     90.9% 0.00in /  0mm 0 W/m2
04:49 56.5 °F /  13.6 °C 53.9 °F /  12.2 °C 29.97in /  1014.8hPa Calm     91% 0.00in /  0mm 0 W/m2
04:54 56.4 °F /  13.6 °C 53.8 °F /  12.1 °C 29.97in /  1014.8hPa Calm     91% 0.00in /  0mm 0 W/m2
04:59 56.3 °F /  13.5 °C 53.7 °F /  12.1 °C 29.97in /  1014.8hPa Calm     91% 0.00in /  0mm 0 W/m2
05:04 56.2 °F /  13.4 °C 53.6 °F /  12 °C 29.97in /  1014.8hPa Calm     91% 0.00in /  0mm 0 W/m2
05:09 56.2 °F /  13.4 °C 53.6 °F /  12 °C 29.96in /  1014.4hPa Calm     91% 0.00in /  0mm 0 W/m2
05:14 56.2 °F /  13.4 °C 53.8 °F /  12.1 °C 29.97in /  1014.8hPa Calm     91.6% 0.00in /  0mm 0 W/m2
05:19 56.2 °F /  13.4 °C 53.9 °F /  12.2 °C 29.97in /  1014.8hPa Calm     92% 0.00in /  0mm 0 W/m2
05:24 56.2 °F /  13.4 °C 53.9 °F /  12.2 °C 29.97in /  1014.8hPa Calm     92% 0.00in /  0mm 0 W/m2
05:29 56.2 °F /  13.4 °C 53.9 °F /  12.2 °C 29.97in /  1014.8hPa Calm     92% 0.00in /  0mm 0 W/m2
05:34 56.1 °F /  13.4 °C 53.8 °F /  12.1 °C 29.97in /  1014.8hPa Calm     92% 0.00in /  0mm 0 W/m2
05:39 56 °F /  13.3 °C 53.7 °F /  12.1 °C 29.97in /  1014.8hPa Calm     92% 0.00in /  0mm 0 W/m2
05:44 56 °F /  13.3 °C 53.7 °F /  12.1 °C 29.97in /  1014.8hPa Calm     92% 0.00in /  0mm 0 W/m2
05:49 55.9 °F /  13.3 °C 53.6 °F /  12 °C 29.97in /  1014.8hPa Calm     92% 0.00in /  0mm 0 W/m2
05:54 55.9 °F /  13.3 °C 53.6 °F /  12 °C 29.97in /  1014.8hPa Calm     92% 0.00in /  0mm 0 W/m2
05:59 55.9 °F /  13.3 °C 53.6 °F /  12 °C 29.97in /  1014.8hPa Calm     92% 0.00in /  0mm 0 W/m2
06:04 55.7 °F /  13.2 °C 53.4 °F /  11.9 °C 29.97in /  1014.8hPa Calm     92% 0.00in /  0mm 0 W/m2
06:09 55.7 °F /  13.2 °C 53.4 °F /  11.9 °C 29.97in /  1014.8hPa Calm     92% 0.00in /  0mm 0 W/m2
06:14 55.7 °F /  13.2 °C 53.6 °F /  12 °C 29.97in /  1014.8hPa Calm     92.5% 0.00in /  0mm 0 W/m2
06:19 55.7 °F /  13.2 °C 53.7 °F /  12.1 °C 29.98in /  1015.1hPa Calm     93% 0.00in /  0mm 0 W/m2
06:24 55.8 °F /  13.2 °C 53.8 °F /  12.1 °C 29.98in /  1015.1hPa WNW 0.2mph /  0.3km/h 2mph /  3.2km/h 93% 0.00in /  0mm 5 W/m2
06:29 55.8 °F /  13.2 °C 53.8 °F /  12.1 °C 29.98in /  1015.1hPa Calm   2mph /  3.2km/h 93% 0.00in /  0mm 7 W/m2
06:34 55.9 °F /  13.3 °C 53.9 °F /  12.2 °C 29.98in /  1015.1hPa Calm   2mph /  3.2km/h 93% 0.00in /  0mm 9 W/m2
06:39 55.9 °F /  13.3 °C 54 °F /  12.2 °C 29.98in /  1015.1hPa WNW 0.3mph /  0.5km/h 2mph /  3.2km/h 93% 0.00in /  0mm 11 W/m2
06:44 56 °F /  13.3 °C 54 °F /  12.2 °C 29.98in /  1015.1hPa Calm   2mph /  3.2km/h 93% 0.00in /  0mm 12 W/m2
06:49 56 °F /  13.3 °C 54 °F /  12.2 °C 29.98in /  1015.1hPa Calm   2mph /  3.2km/h 93% 0.00in /  0mm 16 W/m2
06:54 56 °F /  13.3 °C 54 °F /  12.2 °C 29.99in /  1015.5hPa Calm   2mph /  3.2km/h 93% 0.00in /  0mm 16 W/m2
06:59 56 °F /  13.3 °C 54 °F /  12.2 °C 29.99in /  1015.5hPa Calm   2mph /  3.2km/h 93% 0.00in /  0mm 18 W/m2
07:04 56 °F /  13.3 °C 54 °F /  12.2 °C 29.99in /  1015.5hPa Calm   2mph /  3.2km/h 93% 0.00in /  0mm 19 W/m2
07:09 56.2 °F /  13.4 °C 54.2 °F /  12.3 °C 29.98in /  1015.1hPa Calm     93% 0.00in /  0mm 23 W/m2
07:14 56.4 °F /  13.6 °C 54.4 °F /  12.4 °C 29.99in /  1015.5hPa Calm   1mph /  1.6km/h 93% 0.00in /  0mm 25 W/m2
07:19 56.7 °F /  13.7 °C 54.7 °F /  12.6 °C 29.99in /  1015.5hPa Calm   1mph /  1.6km/h 93% 0.00in /  0mm 26 W/m2
07:24 57 °F /  13.9 °C 55 °F /  12.8 °C 29.99in /  1015.5hPa Calm   1mph /  1.6km/h 93% 0.00in /  0mm 26 W/m2
07:29 57.4 °F /  14.1 °C 55.4 °F /  13 °C 29.99in /  1015.5hPa Calm   1mph /  1.6km/h 93% 0.00in /  0mm 28 W/m2
07:34 57.7 °F /  14.3 °C 55.7 °F /  13.2 °C 29.99in /  1015.5hPa WNW 0.1mph /  0.2km/h 2mph /  3.2km/h 93% 0.00in /  0mm 28 W/m2
07:39 57.9 °F /  14.4 °C 55.9 °F /  13.3 °C 29.99in /  1015.5hPa West 0.3mph /  0.5km/h 4mph /  6.4km/h 93% 0.00in /  0mm 30 W/m2
07:44 58.3 °F /  14.6 °C 56.2 °F /  13.4 °C 30.00in /  1015.8hPa Calm   4mph /  6.4km/h 92.8% 0.00in /  0mm 33 W/m2
07:49 58.5 °F /  14.7 °C 56.4 °F /  13.6 °C 30.00in /  1015.8hPa West 0.1mph /  0.2km/h 4mph /  6.4km/h 92.7% 0.00in /  0mm 51 W/m2
07:54 58.8 °F /  14.9 °C 56.4 °F /  13.6 °C 30.00in /  1015.8hPa Calm   4mph /  6.4km/h 92% 0.00in /  0mm 42 W/m2
07:59 59.1 °F /  15.1 °C 56.7 °F /  13.7 °C 30.00in /  1015.8hPa Calm   4mph /  6.4km/h 92% 0.00in /  0mm 46 W/m2
08:00 59.2 °F /  15.1 °C 56.9 °F /  13.8 °C 30.00in /  1015.8hPa Calm   4mph /  6.4km/h 92% 0.00in /  0mm 46 W/m2
08:09 59.7 °F /  15.4 °C 57.1 °F /  13.9 °C 30.00in /  1015.8hPa Calm     91% 0.00in /  0mm 58 W/m2
08:14 60.1 °F /  15.6 °C 57.4 °F /  14.1 °C 30.00in /  1015.8hPa West 0.3mph /  0.5km/h 3mph /  4.8km/h 90.8% 0.00in /  0mm 69 W/m2
08:19 60.4 °F /  15.8 °C 57.5 °F /  14.2 °C 30.00in /  1015.8hPa WNW 0.6mph /  1km/h 5mph /  8km/h 90% 0.00in /  0mm 91 W/m2
08:24 60.8 °F /  16 °C 57.6 °F /  14.2 °C 30.00in /  1015.8hPa Calm   5mph /  8km/h 89.2% 0.00in /  0mm 346 W/m2
08:29 61.3 °F /  16.3 °C 57.9 °F /  14.4 °C 30.00in /  1015.8hPa WNW 0.3mph /  0.5km/h 5mph /  8km/h 88.5% 0.00in /  0mm 364 W/m2
08:34 61.9 °F /  16.6 °C 58.2 °F /  14.6 °C 30.00in /  1015.8hPa WNW 0.1mph /  0.2km/h 5mph /  8km/h 87.5% 0.00in /  0mm 381 W/m2
08:39 62.8 °F /  17.1 °C 58.8 °F /  14.9 °C 30.00in /  1015.8hPa WNW 0.6mph /  1km/h 4mph /  6.4km/h 86.6% 0.00in /  0mm 396 W/m2
08:44 63.9 °F /  17.7 °C 59 °F /  15 °C 30.00in /  1015.8hPa WNW 1.8mph /  2.9km/h 9mph /  14.5km/h 84.2% 0.00in /  0mm 411 W/m2
08:49 64.9 °F /  18.3 °C 59.3 °F /  15.2 °C 30.00in /  1015.8hPa WNW 1.2mph /  1.9km/h 9mph /  14.5km/h 82% 0.00in /  0mm 427 W/m2
08:54 65.9 °F /  18.8 °C 60.2 °F /  15.7 °C 30.00in /  1015.8hPa WNW 0.6mph /  1km/h 9mph /  14.5km/h 81.7% 0.00in /  0mm 441 W/m2
08:59 66.7 °F /  19.3 °C 59.9 °F /  15.5 °C 30.00in /  1015.8hPa WNW 1mph /  1.6km/h 9mph /  14.5km/h 78.7% 0.00in /  0mm 457 W/m2
09:04 67.5 °F /  19.7 °C 60.3 °F /  15.7 °C 30.00in /  1015.8hPa WNW 0.3mph /  0.5km/h 9mph /  14.5km/h 77.5% 0.00in /  0mm 469 W/m2
09:09 68.2 °F /  20.1 °C 60.3 °F /  15.7 °C 30.00in /  1015.8hPa WNW 1.2mph /  1.9km/h 5mph /  8km/h 75.9% 0.00in /  0mm 487 W/m2
09:14 68.8 °F /  20.4 °C 60.6 °F /  15.9 °C 30.00in /  1015.8hPa WNW 0.3mph /  0.5km/h 5mph /  8km/h 75% 0.00in /  0mm 496 W/m2
09:19 69.4 °F /  20.8 °C 61 °F /  16.1 °C 30.00in /  1015.8hPa WNW 1mph /  1.6km/h 5mph /  8km/h 74.4% 0.00in /  0mm 510 W/m2
09:24 70 °F /  21.1 °C 60.8 °F /  16 °C 30.00in /  1015.8hPa WNW 0.8mph /  1.3km/h 6mph /  9.7km/h 72.6% 0.00in /  0mm 524 W/m2
09:29 70.5 °F /  21.4 °C 61.7 °F /  16.5 °C 30.00in /  1015.8hPa Calm   6mph /  9.7km/h 73.7% 0.00in /  0mm 540 W/m2
09:34 71.1 °F /  21.7 °C 61.9 °F /  16.6 °C 30.00in /  1015.8hPa West 1.2mph /  1.9km/h 6mph /  9.7km/h 72.9% 0.00in /  0mm 552 W/m2
09:39 71.6 °F /  22 °C 62.1 °F /  16.7 °C 30.00in /  1015.8hPa WNW 1.9mph /  3.1km/h 7mph /  11.3km/h 71.8% 0.00in /  0mm 568 W/m2
09:44 72.2 °F /  22.3 °C 62 °F /  16.7 °C 30.00in /  1015.8hPa West 1.2mph /  1.9km/h 7mph /  11.3km/h 70.5% 0.00in /  0mm 584 W/m2
09:49 72.7 °F /  22.6 °C 63 °F /  17.2 °C 29.99in /  1015.5hPa West 1.2mph /  1.9km/h 7mph /  11.3km/h 71.4% 0.00in /  0mm 594 W/m2
09:54 73.2 °F /  22.9 °C 62.3 °F /  16.8 °C 30.00in /  1015.8hPa WSW 1.6mph /  2.6km/h 9mph /  14.5km/h 68.7% 0.00in /  0mm 606 W/m2
09:59 73.6 °F /  23.1 °C 62.7 °F /  17.1 °C 30.00in /  1015.8hPa WNW 0.7mph /  1.1km/h 9mph /  14.5km/h 68.7% 0.00in /  0mm 621 W/m2
10:04 74.2 °F /  23.4 °C 62.8 °F /  17.1 °C 30.00in /  1015.8hPa WNW 3.9mph /  6.3km/h 12mph /  19.3km/h 67.7% 0.00in /  0mm 629 W/m2
10:09 74.3 °F /  23.5 °C 61.9 °F /  16.6 °C 30.00in /  1015.8hPa WNW 4.1mph /  6.6km/h 12mph /  19.3km/h 65.3% 0.00in /  0mm 640 W/m2
10:14 74.2 °F /  23.4 °C 61.6 °F /  16.4 °C 30.00in /  1015.8hPa WNW 4.2mph /  6.8km/h 12mph /  19.3km/h 64.8% 0.00in /  0mm 657 W/m2
10:19 74.3 °F /  23.5 °C 61.9 °F /  16.6 °C 30.00in /  1015.8hPa WNW 4mph /  6.4km/h 12mph /  19.3km/h 65.4% 0.00in /  0mm 668 W/m2
10:24 74.4 °F /  23.6 °C 62.4 °F /  16.9 °C 30.00in /  1015.8hPa WNW 2.9mph /  4.7km/h 12mph /  19.3km/h 66.2% 0.00in /  0mm 680 W/m2
10:29 74.7 °F /  23.7 °C 62.7 °F /  17.1 °C 30.00in /  1015.8hPa WNW 2.6mph /  4.2km/h 12mph /  19.3km/h 66.3% 0.00in /  0mm 687 W/m2
10:34 75 °F /  23.9 °C 62 °F /  16.7 °C 30.00in /  1015.8hPa WNW 3.6mph /  5.8km/h 12mph /  19.3km/h 64% 0.00in /  0mm 698 W/m2
10:39 75.1 °F /  23.9 °C 61.6 °F /  16.4 °C 30.00in /  1015.8hPa WNW 4mph /  6.4km/h 10mph /  16.1km/h 62.8% 0.00in /  0mm 710 W/m2
10:44 75.2 °F /  24 °C 61.3 °F /  16.3 °C 29.99in /  1015.5hPa WNW 5mph /  8km/h 12mph /  19.3km/h 61.9% 0.00in /  0mm 717 W/m2
10:49 75.2 °F /  24 °C 61 °F /  16.1 °C 29.99in /  1015.5hPa NW 3.4mph /  5.5km/h 12mph /  19.3km/h 61.5% 0.00in /  0mm 724 W/m2
10:54 75.5 °F /  24.2 °C 61.5 °F /  16.4 °C 29.99in /  1015.5hPa WNW 1.9mph /  3.1km/h 12mph /  19.3km/h 61.9% 0.00in /  0mm 735 W/m2
10:59 75.7 °F /  24.3 °C 60.5 °F /  15.8 °C 29.99in /  1015.5hPa West 3.1mph /  5km/h 12mph /  19.3km/h 59.4% 0.00in /  0mm 744 W/m2
11:04 76 °F /  24.4 °C 61.9 °F /  16.6 °C 29.99in /  1015.5hPa NW 1.3mph /  2.1km/h 12mph /  19.3km/h 61.7% 0.00in /  0mm 752 W/m2
11:09 76.7 °F /  24.8 °C 61.9 °F /  16.6 °C 29.99in /  1015.5hPa NW 0.7mph /  1.1km/h 6mph /  9.7km/h 60.3% 0.00in /  0mm 763 W/m2
11:14 77.2 °F /  25.1 °C 62.2 °F /  16.8 °C 29.98in /  1015.1hPa NW 1.5mph /  2.4km/h 6mph /  9.7km/h 59.8% 0.00in /  0mm 773 W/m2
11:19 77.4 °F /  25.2 °C 61.3 °F /  16.3 °C 29.98in /  1015.1hPa WNW 3.8mph /  6.1km/h 9mph /  14.5km/h 57.7% 0.00in /  0mm 782 W/m2
11:24 77.2 °F /  25.1 °C 61.4 °F /  16.3 °C 29.98in /  1015.1hPa WNW 2.6mph /  4.2km/h 9mph /  14.5km/h 58.1% 0.00in /  0mm 786 W/m2
11:29 77.4 °F /  25.2 °C 62 °F /  16.7 °C 29.98in /  1015.1hPa WNW 3.3mph /  5.3km/h 9mph /  14.5km/h 59.1% 0.00in /  0mm 791 W/m2
11:34 77.6 °F /  25.3 °C 61.6 °F /  16.4 °C 29.98in /  1015.1hPa NNW 2.3mph /  3.7km/h 9mph /  14.5km/h 57.8% 0.00in /  0mm 800 W/m2
11:39 77.6 °F /  25.3 °C 61 °F /  16.1 °C 29.97in /  1014.8hPa NW 2.6mph /  4.2km/h 10mph /  16.1km/h 56.6% 0.00in /  0mm 809 W/m2
11:44 77.5 °F /  25.3 °C 60.7 °F /  15.9 °C 29.97in /  1014.8hPa WNW 2.8mph /  4.5km/h 10mph /  16.1km/h 56.2% 0.00in /  0mm 812 W/m2
11:49 77.4 °F /  25.2 °C 60.5 °F /  15.8 °C 29.97in /  1014.8hPa NW 3.5mph /  5.6km/h 11mph /  17.7km/h 56.1% 0.00in /  0mm 819 W/m2
11:54 77.1 °F /  25.1 °C 59.8 °F /  15.4 °C 29.97in /  1014.8hPa WNW 2.6mph /  4.2km/h 11mph /  17.7km/h 55.2% 0.00in /  0mm 823 W/m2
11:59 76.7 °F /  24.8 °C 59.7 °F /  15.4 °C 29.97in /  1014.8hPa NW 2.8mph /  4.5km/h 12mph /  19.3km/h 55.6% 0.00in /  0mm 738 W/m2
12:00 76.6 °F /  24.8 °C 59.8 °F /  15.4 °C 29.97in /  1014.8hPa NNW 3mph /  4.8km/h 12mph /  19.3km/h 56% 0.00in /  0mm 120 W/m2
12:09 76.2 °F /  24.6 °C 59.7 °F /  15.4 °C 29.97in /  1014.8hPa WNW 2.1mph /  3.4km/h 7mph /  11.3km/h 56.8% 0.00in /  0mm 169 W/m2
12:14 75.9 °F /  24.4 °C 59.2 °F /  15.1 °C 29.96in /  1014.4hPa NNW 2.9mph /  4.7km/h 9mph /  14.5km/h 56.2% 0.00in /  0mm 223 W/m2
12:19 75.5 °F /  24.2 °C 58.9 °F /  14.9 °C 29.96in /  1014.4hPa NE 1mph /  1.6km/h 9mph /  14.5km/h 56.5% 0.00in /  0mm 202 W/m2
12:22 75.2 °F /  24 °C 59.7 °F /  15.4 °C 29.96in /  1014.4hPa NNW 1.3mph /  2.1km/h 9mph /  14.5km/h 58.4% 0.00in /  0mm 234 W/m2
12:30 75.1 °F /  23.9 °C 60.3 °F /  15.7 °C 29.95in /  1014.1hPa WNW 2mph /  3.2km/h 11mph /  17.7km/h 60% 0.00in /  0mm 182 W/m2
13:00 76.4 °F /  24.7 °C 61.5 °F /  16.4 °C 29.94in /  1013.8hPa WNW 1mph /  1.6km/h 9mph /  14.5km/h 60% 0.00in /  0mm 311 W/m2
13:30 76.8 °F /  24.9 °C 60.4 °F /  15.8 °C 29.93in /  1013.4hPa WNW 2mph /  3.2km/h 10mph /  16.1km/h 57% 0.00in /  0mm 293 W/m2
14:00 77.1 °F /  25.1 °C 60.2 °F /  15.7 °C 29.92in /  1013.1hPa WSW 2mph /  3.2km/h 12mph /  19.3km/h 56% 0.00in /  0mm 368 W/m2
14:30 78.8 °F /  26 °C 59.7 °F /  15.4 °C 29.91in /  1012.8hPa NW 2mph /  3.2km/h 10mph /  16.1km/h 52% 0.00in /  0mm 826 W/m2
15:00 79.9 °F /  26.6 °C 60.7 °F /  15.9 °C 29.90in /  1012.4hPa West 2mph /  3.2km/h 10mph /  16.1km/h 52% 0.00in /  0mm 797 W/m2
15:30 79.8 °F /  26.6 °C 59.5 °F /  15.3 °C 29.89in /  1012.1hPa WNW 3mph /  4.8km/h 10mph /  16.1km/h 50% 0.00in /  0mm 720 W/m2
16:09 79.5 °F /  26.4 °C 60.4 °F /  15.8 °C 29.89in /  1012.1hPa WSW 2.3mph /  3.7km/h 6mph /  9.7km/h 52.1% 0.00in /  0mm 72 W/m2
16:14 79.2 °F /  26.2 °C 60.4 °F /  15.8 °C 29.89in /  1012.1hPa West 1.2mph /  1.9km/h 6mph /  9.7km/h 52.7% 0.00in /  0mm 63 W/m2
16:19 78.7 °F /  25.9 °C 60.2 °F /  15.7 °C 29.89in /  1012.1hPa NW 1.7mph /  2.7km/h 6mph /  9.7km/h 53% 0.00in /  0mm 84 W/m2
16:24 78.2 °F /  25.7 °C 60.3 °F /  15.7 °C 29.89in /  1012.1hPa NW 2.3mph /  3.7km/h 9mph /  14.5km/h 54% 0.00in /  0mm 63 W/m2
16:29 77.8 °F /  25.4 °C 59.7 °F /  15.4 °C 29.89in /  1012.1hPa NNW 1.7mph /  2.7km/h 9mph /  14.5km/h 53.6% 0.00in /  0mm 40 W/m2
16:34 77.7 °F /  25.4 °C 60.6 °F /  15.9 °C 29.89in /  1012.1hPa NNW 1.2mph /  1.9km/h 9mph /  14.5km/h 55.6% 0.00in /  0mm 37 W/m2
16:39 77.8 °F /  25.4 °C 60.2 °F /  15.7 °C 29.88in /  1011.7hPa NNW 1mph /  1.6km/h 4mph /  6.4km/h 54.6% 0.00in /  0mm 37 W/m2
16:44 77.7 °F /  25.4 °C 60.1 °F /  15.6 °C 29.88in /  1011.7hPa NNW 1mph /  1.6km/h 5mph /  8km/h 54.6% 0.00in /  0mm 37 W/m2
16:49 77.7 °F /  25.4 °C 60.9 °F /  16.1 °C 29.88in /  1011.7hPa NNW 1.3mph /  2.1km/h 5mph /  8km/h 56.3% 0.00in /  0mm 35 W/m2
16:54 77.8 °F /  25.4 °C 60.8 °F /  16 °C 29.88in /  1011.7hPa NW 1.2mph /  1.9km/h 5mph /  8km/h 56% 0.00in /  0mm 35 W/m2
16:59 77.8 °F /  25.4 °C 60.6 °F /  15.9 °C 29.88in /  1011.7hPa NW 0.8mph /  1.3km/h 5mph /  8km/h 55.5% 0.00in /  0mm 33 W/m2
17:04 77.7 °F /  25.4 °C 60.8 °F /  16 °C 29.88in /  1011.7hPa NW 0.4mph /  0.6km/h 5mph /  8km/h 56% 0.00in /  0mm 32 W/m2
17:09 77.6 °F /  25.3 °C 60.9 °F /  16.1 °C 29.88in /  1011.7hPa NW 1.7mph /  2.7km/h 7mph /  11.3km/h 56.4% 0.00in /  0mm 32 W/m2
17:14 77.6 °F /  25.3 °C 60.4 °F /  15.8 °C 29.88in /  1011.7hPa WNW 1.5mph /  2.4km/h 7mph /  11.3km/h 55.5% 0.00in /  0mm 30 W/m2
17:19 77.5 °F /  25.3 °C 60.7 °F /  15.9 °C 29.88in /  1011.7hPa WNW 0.6mph /  1km/h 7mph /  11.3km/h 56.2% 0.00in /  0mm 30 W/m2
17:24 77.5 °F /  25.3 °C 60.7 °F /  15.9 °C 29.88in /  1011.7hPa WNW 3mph /  4.8km/h 7mph /  11.3km/h 56.4% 0.00in /  0mm 28 W/m2
17:29 77.3 °F /  25.2 °C 60.4 °F /  15.8 °C 29.88in /  1011.7hPa WNW 1.9mph /  3.1km/h 7mph /  11.3km/h 56% 0.00in /  0mm 28 W/m2
17:34 77.3 °F /  25.2 °C 60.9 °F /  16.1 °C 29.87in /  1011.4hPa WNW 0.8mph /  1.3km/h 7mph /  11.3km/h 57% 0.00in /  0mm 26 W/m2
17:39 77.2 °F /  25.1 °C 60.6 °F /  15.9 °C 29.87in /  1011.4hPa West 0.8mph /  1.3km/h 5mph /  8km/h 56.5% 0.00in /  0mm 26 W/m2
17:44 77.1 °F /  25.1 °C 60.2 °F /  15.7 °C 29.87in /  1011.4hPa West 1.6mph /  2.6km/h 6mph /  9.7km/h 55.9% 0.00in /  0mm 26 W/m2
17:49 77 °F /  25 °C 60.4 °F /  15.8 °C 29.87in /  1011.4hPa WNW 0.6mph /  1km/h 6mph /  9.7km/h 56.5% 0.00in /  0mm 25 W/m2
17:54 76.9 °F /  24.9 °C 60.1 °F /  15.6 °C 29.87in /  1011.4hPa WNW 0.3mph /  0.5km/h 6mph /  9.7km/h 56.2% 0.00in /  0mm 25 W/m2
17:59 76.8 °F /  24.9 °C 60.3 °F /  15.7 °C 29.87in /  1011.4hPa Calm   6mph /  9.7km/h 56.8% 0.00in /  0mm 23 W/m2
18:04 76.6 °F /  24.8 °C 60.3 °F /  15.7 °C 29.87in /  1011.4hPa WNW 0.1mph /  0.2km/h 6mph /  9.7km/h 57% 0.00in /  0mm 23 W/m2
18:09 76.5 °F /  24.7 °C 60.4 °F /  15.8 °C 29.87in /  1011.4hPa WNW 0.1mph /  0.2km/h 2mph /  3.2km/h 57.4% 0.00in /  0mm 21 W/m2
18:14 76.5 °F /  24.7 °C 61 °F /  16.1 °C 29.87in /  1011.4hPa WNW 0.6mph /  1km/h 2mph /  3.2km/h 58.8% 0.00in /  0mm 21 W/m2
18:19 76.4 °F /  24.7 °C 60.8 °F /  16 °C 29.88in /  1011.7hPa Calm   2mph /  3.2km/h 58.6% 0.00in /  0mm 19 W/m2
18:24 76.2 °F /  24.6 °C 61 °F /  16.1 °C 29.88in /  1011.7hPa WNW 0.9mph /  1.4km/h 4mph /  6.4km/h 59.4% 0.00in /  0mm 19 W/m2
18:29 76.1 °F /  24.5 °C 60.8 °F /  16 °C 29.88in /  1011.7hPa WNW 0.3mph /  0.5km/h 4mph /  6.4km/h 59.2% 0.00in /  0mm 18 W/m2
18:34 75.9 °F /  24.4 °C 61.1 °F /  16.2 °C 29.88in /  1011.7hPa Calm   4mph /  6.4km/h 60% 0.00in /  0mm 16 W/m2
18:39 75.8 °F /  24.3 °C 60.6 °F /  15.9 °C 29.88in /  1011.7hPa Calm     59.3% 0.00in /  0mm 14 W/m2
18:44 75.7 °F /  24.3 °C 60.6 °F /  15.9 °C 29.88in /  1011.7hPa Calm     59.5% 0.00in /  0mm 14 W/m2
18:49 75.5 °F /  24.2 °C 61.1 °F /  16.2 °C 29.88in /  1011.7hPa Calm   1mph /  1.6km/h 60.8% 0.00in /  0mm 12 W/m2
18:54 75.4 °F /  24.1 °C 61 °F /  16.1 °C 29.88in /  1011.7hPa Calm   1mph /  1.6km/h 61% 0.00in /  0mm 11 W/m2
18:59 75.2 °F /  24 °C 61.1 °F /  16.2 °C 29.89in /  1012.1hPa Calm   1mph /  1.6km/h 61.7% 0.00in /  0mm 9 W/m2
19:04 75 °F /  23.9 °C 61.3 °F /  16.3 °C 29.89in /  1012.1hPa Calm   1mph /  1.6km/h 62.5% 0.00in /  0mm 7 W/m2
19:09 74.7 °F /  23.7 °C 61.3 °F /  16.3 °C 29.89in /  1012.1hPa Calm     63.2% 0.00in /  0mm 5 W/m2
19:14 74.4 °F /  23.6 °C 61.5 °F /  16.4 °C 29.89in /  1012.1hPa Calm     64% 0.00in /  0mm 0 W/m2
19:19 74.1 °F /  23.4 °C 61.9 °F /  16.6 °C 29.90in /  1012.4hPa Calm     65.6% 0.00in /  0mm 0 W/m2
19:24 73.8 °F /  23.2 °C 61.8 °F /  16.6 °C 29.90in /  1012.4hPa Calm     66.1% 0.00in /  0mm 0 W/m2
19:29 73.5 °F /  23.1 °C 61.9 °F /  16.6 °C 29.90in /  1012.4hPa Calm     67% 0.00in /  0mm 0 W/m2
19:34 73.1 °F /  22.8 °C 62 °F /  16.7 °C 29.90in /  1012.4hPa Calm     68% 0.00in /  0mm 0 W/m2
19:39 72.8 °F /  22.7 °C 62 °F /  16.7 °C 29.91in /  1012.8hPa Calm     69% 0.00in /  0mm 0 W/m2
19:44 72.3 °F /  22.4 °C 61.7 °F /  16.5 °C 29.91in /  1012.8hPa Calm     69.1% 0.00in /  0mm 0 W/m2
19:49 72 °F /  22.2 °C 61.7 °F /  16.5 °C 29.91in /  1012.8hPa Calm     70.1% 0.00in /  0mm 0 W/m2
19:54 71.6 °F /  22 °C 61.8 °F /  16.6 °C 29.91in /  1012.8hPa Calm     71.3% 0.00in /  0mm 0 W/m2
19:59 71.2 °F /  21.8 °C 61.8 °F /  16.6 °C 29.91in /  1012.8hPa Calm     72.2% 0.00in /  0mm 0 W/m2
20:09 70.4 °F /  21.3 °C 62.3 °F /  16.8 °C 29.91in /  1012.8hPa Calm     75.4% 0.00in /  0mm 0 W/m2
20:14 70 °F /  21.1 °C 62.1 °F /  16.7 °C 29.92in /  1013.1hPa Calm     76% 0.00in /  0mm 0 W/m2
20:19 69.6 °F /  20.9 °C 61.7 °F /  16.5 °C 29.92in /  1013.1hPa Calm     75.9% 0.00in /  0mm 0 W/m2
20:24 69.3 °F /  20.7 °C 61.2 °F /  16.2 °C 29.92in /  1013.1hPa Calm     75.6% 0.00in /  0mm 0 W/m2
20:29 69 °F /  20.6 °C 61.1 °F /  16.2 °C 29.91in /  1012.8hPa Calm     76% 0.00in /  0mm 0 W/m2
20:34 68.7 °F /  20.4 °C 61 °F /  16.1 °C 29.91in /  1012.8hPa Calm     76.4% 0.00in /  0mm 0 W/m2
20:39 68.5 °F /  20.3 °C 61.1 °F /  16.2 °C 29.91in /  1012.8hPa Calm     77% 0.00in /  0mm 0 W/m2
20:44 68.4 °F /  20.2 °C 61.1 °F /  16.2 °C 29.91in /  1012.8hPa Calm     77.5% 0.00in /  0mm 0 W/m2
20:49 68.2 °F /  20.1 °C 61.2 °F /  16.2 °C 29.92in /  1013.1hPa Calm     78.2% 0.00in /  0mm 0 W/m2
20:54 68.1 °F /  20.1 °C 61.3 °F /  16.3 °C 29.92in /  1013.1hPa Calm     79% 0.00in /  0mm 0 W/m2
20:59 67.9 °F /  19.9 °C 61.1 °F /  16.2 °C 29.92in /  1013.1hPa Calm     79% 0.00in /  0mm 0 W/m2
21:04 67.7 °F /  19.8 °C 60.9 °F /  16.1 °C 29.92in /  1013.1hPa Calm     79% 0.00in /  0mm 0 W/m2
21:09 67.5 °F /  19.7 °C 60.8 °F /  16 °C 29.92in /  1013.1hPa Calm     79% 0.00in /  0mm 0 W/m2
21:14 67.3 °F /  19.6 °C 60.8 °F /  16 °C 29.92in /  1013.1hPa Calm     79.6% 0.00in /  0mm 0 W/m2
21:19 67.2 °F /  19.6 °C 61.1 °F /  16.2 °C 29.92in /  1013.1hPa Calm     81% 0.00in /  0mm 0 W/m2
21:24 66.9 °F /  19.4 °C 61.1 °F /  16.2 °C 29.92in /  1013.1hPa Calm     81.5% 0.00in /  0mm 0 W/m2
21:29 66.7 °F /  19.3 °C 61.1 °F /  16.2 °C 29.91in /  1012.8hPa Calm     82% 0.00in /  0mm 0 W/m2
21:34 66.5 °F /  19.2 °C 60.8 °F /  16 °C 29.91in /  1012.8hPa Calm     82% 0.00in /  0mm 0 W/m2
21:39 66.3 °F /  19.1 °C 60.7 °F /  15.9 °C 29.91in /  1012.8hPa Calm     82.1% 0.00in /  0mm 0 W/m2
21:44 66.1 °F /  18.9 °C 60.9 °F /  16.1 °C 29.91in /  1012.8hPa Calm     83.2% 0.00in /  0mm 0 W/m2
21:49 66 °F /  18.9 °C 61 °F /  16.1 °C 29.91in /  1012.8hPa Calm     84% 0.00in /  0mm 0 W/m2
21:54 65.8 °F /  18.8 °C 60.8 °F /  16 °C 29.91in /  1012.8hPa Calm     84% 0.00in /  0mm 0 W/m2
21:59 65.6 °F /  18.7 °C 60.7 °F /  15.9 °C 29.91in /  1012.8hPa Calm     84% 0.00in /  0mm 0 W/m2
22:04 65.4 °F /  18.6 °C 60.7 °F /  15.9 °C 29.91in /  1012.8hPa Calm     84.7% 0.00in /  0mm 0 W/m2
22:09 65.3 °F /  18.5 °C 60.6 °F /  15.9 °C 29.91in /  1012.8hPa Calm     85% 0.00in /  0mm 0 W/m2
22:14 65.1 °F /  18.4 °C 60.5 °F /  15.8 °C 29.91in /  1012.8hPa Calm     85% 0.00in /  0mm 0 W/m2
22:19 65 °F /  18.3 °C 60.6 °F /  15.9 °C 29.91in /  1012.8hPa Calm     85.7% 0.00in /  0mm 0 W/m2
22:24 64.8 °F /  18.2 °C 60.6 °F /  15.9 °C 29.91in /  1012.8hPa Calm     86% 0.00in /  0mm 0 W/m2
22:29 64.7 °F /  18.2 °C 60.5 °F /  15.8 °C 29.91in /  1012.8hPa Calm     86% 0.00in /  0mm 0 W/m2
22:34 64.7 °F /  18.2 °C 60.6 °F /  15.9 °C 29.91in /  1012.8hPa Calm     86.6% 0.00in /  0mm 0 W/m2
22:39 64.6 °F /  18.1 °C 60.6 °F /  15.9 °C 29.91in /  1012.8hPa Calm     87% 0.00in /  0mm 0 W/m2
22:43 64.5 °F /  18.1 °C 60.5 °F /  15.8 °C 29.91in /  1012.8hPa Calm     87% 0.00in /  0mm 0 W/m2
Hartford County Weather
Compliments of Weather Underground - 4 mb